sensor_id;sensor_type;location;lat;lon;timestamp;temperature;humidity
9971;DHT22;5026;51.494;11.974;2023-10-09T00:01:51;12.20;99.90
9971;DHT22;5026;51.494;11.974;2023-10-09T00:04:17;12.20;99.90
9971;DHT22;5026;51.494;11.974;2023-10-09T00:06:44;12.10;99.90
9971;DHT22;5026;51.494;11.974;2023-10-09T00:09:12;12.20;99.90
9971;DHT22;5026;51.494;11.974;2023-10-09T00:11:57;12.20;99.90
9971;DHT22;5026;51.494;11.974;2023-10-09T00:14:26;12.20;99.90
9971;DHT22;5026;51.494;11.974;2023-10-09T00:16:56;12.20;99.90
9971;DHT22;5026;51.494;11.974;2023-10-09T00:19:31;12.20;99.90
9971;DHT22;5026;51.494;11.974;2023-10-09T00:21:59;12.20;99.90
9971;DHT22;5026;51.494;11.974;2023-10-09T00:24:32;12.20;99.90
9971;DHT22;5026;51.494;11.974;2023-10-09T00:27:00;12.20;99.90
9971;DHT22;5026;51.494;11.974;2023-10-09T00:29:37;12.20;99.90
9971;DHT22;5026;51.494;11.974;2023-10-09T00:32:10;12.30;99.90
9971;DHT22;5026;51.494;11.974;2023-10-09T00:34:48;12.30;99.90
9971;DHT22;5026;51.494;11.974;2023-10-09T00:37:16;12.20;99.90
9971;DHT22;5026;51.494;11.974;2023-10-09T00:39:48;12.20;99.90
9971;DHT22;5026;51.494;11.974;2023-10-09T00:42:22;12.30;99.90
9971;DHT22;5026;51.494;11.974;2023-10-09T00:44:55;12.30;99.90
9971;DHT22;5026;51.494;11.974;2023-10-09T00:47:23;12.30;99.90
9971;DHT22;5026;51.494;11.974;2023-10-09T00:49:55;12.30;99.90
9971;DHT22;5026;51.494;11.974;2023-10-09T00:52:29;12.30;99.90
9971;DHT22;5026;51.494;11.974;2023-10-09T00:55:03;12.20;99.90
9971;DHT22;5026;51.494;11.974;2023-10-09T00:57:41;12.30;99.90
9971;DHT22;5026;51.494;11.974;2023-10-09T01:00:16;12.30;99.90
9971;DHT22;5026;51.494;11.974;2023-10-09T01:02:58;12.20;99.90
9971;DHT22;5026;51.494;11.974;2023-10-09T01:05:46;12.20;99.90
9971;DHT22;5026;51.494;11.974;2023-10-09T01:08:18;12.10;99.90
9971;DHT22;5026;51.494;11.974;2023-10-09T01:10:52;12.10;99.90
9971;DHT22;5026;51.494;11.974;2023-10-09T01:13:23;12.10;99.90
9971;DHT22;5026;51.494;11.974;2023-10-09T01:16:05;12.20;99.90
9971;DHT22;5026;51.494;11.974;2023-10-09T01:18:32;12.20;99.90
9971;DHT22;5026;51.494;11.974;2023-10-09T01:21:04;12.20;99.90
9971;DHT22;5026;51.494;11.974;2023-10-09T01:23:32;12.20;99.90
9971;DHT22;5026;51.494;11.974;2023-10-09T01:25:59;12.20;99.90
9971;DHT22;5026;51.494;11.974;2023-10-09T01:28:26;12.30;99.90
9971;DHT22;5026;51.494;11.974;2023-10-09T01:30:54;12.30;99.90
9971;DHT22;5026;51.494;11.974;2023-10-09T01:33:21;12.30;99.90
9971;DHT22;5026;51.494;11.974;2023-10-09T01:35:49;12.30;99.90
9971;DHT22;5026;51.494;11.974;2023-10-09T01:38:21;12.30;99.90
9971;DHT22;5026;51.494;11.974;2023-10-09T01:40:59;12.30;99.90
9971;DHT22;5026;51.494;11.974;2023-10-09T01:43:33;12.30;99.90
9971;DHT22;5026;51.494;11.974;2023-10-09T01:46:01;12.30;99.90
9971;DHT22;5026;51.494;11.974;2023-10-09T01:48:30;12.30;99.90
9971;DHT22;5026;51.494;11.974;2023-10-09T01:51:01;12.20;99.90
9971;DHT22;5026;51.494;11.974;2023-10-09T01:53:30;12.20;99.90
9971;DHT22;5026;51.494;11.974;2023-10-09T01:56:09;12.30;99.90
9971;DHT22;5026;51.494;11.974;2023-10-09T01:58:41;12.20;99.90
9971;DHT22;5026;51.494;11.974;2023-10-09T02:01:10;12.30;99.90
9971;DHT22;5026;51.494;11.974;2023-10-09T02:03:38;11.70;99.90
9971;DHT22;5026;51.494;11.974;2023-10-09T02:06:08;12.20;99.90
9971;DHT22;5026;51.494;11.974;2023-10-09T02:08:51;12.20;99.90
9971;DHT22;5026;51.494;11.974;2023-10-09T02:11:20;12.20;99.90
9971;DHT22;5026;51.494;11.974;2023-10-09T02:14:02;12.20;99.90
9971;DHT22;5026;51.494;11.974;2023-10-09T02:16:41;12.20;99.90
9971;DHT22;5026;51.494;11.974;2023-10-09T02:19:09;12.30;99.90
9971;DHT22;5026;51.494;11.974;2023-10-09T02:21:54;12.30;99.90
9971;DHT22;5026;51.494;11.974;2023-10-09T02:24:23;12.30;99.90
9971;DHT22;5026;51.494;11.974;2023-10-09T02:27:09;12.30;99.90
9971;DHT22;5026;51.494;11.974;2023-10-09T02:29:41;12.30;99.90
9971;DHT22;5026;51.494;11.974;2023-10-09T02:32:07;12.30;99.90
9971;DHT22;5026;51.494;11.974;2023-10-09T02:34:50;12.30;99.90
9971;DHT22;5026;51.494;11.974;2023-10-09T02:37:19;12.30;99.90
9971;DHT22;5026;51.494;11.974;2023-10-09T02:39:49;12.30;99.90
9971;DHT22;5026;51.494;11.974;2023-10-09T02:42:19;12.30;99.90
9971;DHT22;5026;51.494;11.974;2023-10-09T02:44:49;12.30;99.90
9971;DHT22;5026;51.494;11.974;2023-10-09T02:47:17;12.30;99.90
9971;DHT22;5026;51.494;11.974;2023-10-09T02:49:46;12.30;99.90
9971;DHT22;5026;51.494;11.974;2023-10-09T02:52:15;12.30;99.90
9971;DHT22;5026;51.494;11.974;2023-10-09T02:54:44;12.20;99.90
9971;DHT22;5026;51.494;11.974;2023-10-09T02:57:13;12.30;99.90
9971;DHT22;5026;51.494;11.974;2023-10-09T02:59:49;12.30;99.90
9971;DHT22;5026;51.494;11.974;2023-10-09T03:02:17;12.30;99.90
9971;DHT22;5026;51.494;11.974;2023-10-09T03:04:45;12.40;99.90
9971;DHT22;5026;51.494;11.974;2023-10-09T03:07:12;12.40;99.90
9971;DHT22;5026;51.494;11.974;2023-10-09T03:09:39;12.40;99.90
9971;DHT22;5026;51.494;11.974;2023-10-09T03:12:07;12.40;99.90
9971;DHT22;5026;51.494;11.974;2023-10-09T03:14:38;12.40;99.90
9971;DHT22;5026;51.494;11.974;2023-10-09T03:17:08;12.50;99.90
9971;DHT22;5026;51.494;11.974;2023-10-09T03:19:37;12.50;99.90
9971;DHT22;5026;51.494;11.974;2023-10-09T03:22:04;12.50;99.90
9971;DHT22;5026;51.494;11.974;2023-10-09T03:24:34;12.50;99.90
9971;DHT22;5026;51.494;11.974;2023-10-09T03:27:02;12.50;99.90
9971;DHT22;5026;51.494;11.974;2023-10-09T03:29:29;12.50;99.90
9971;DHT22;5026;51.494;11.974;2023-10-09T03:31:56;12.60;99.90
9971;DHT22;5026;51.494;11.974;2023-10-09T03:34:24;12.60;99.90
9971;DHT22;5026;51.494;11.974;2023-10-09T03:36:51;12.60;99.90
9971;DHT22;5026;51.494;11.974;2023-10-09T03:39:29;12.60;99.90
9971;DHT22;5026;51.494;11.974;2023-10-09T03:42:00;12.60;99.90
9971;DHT22;5026;51.494;11.974;2023-10-09T03:44:30;12.60;99.90
9971;DHT22;5026;51.494;11.974;2023-10-09T03:46:59;12.50;99.90
9971;DHT22;5026;51.494;11.974;2023-10-09T03:49:28;12.60;99.90
9971;DHT22;5026;51.494;11.974;2023-10-09T03:51:55;12.50;99.90
9971;DHT22;5026;51.494;11.974;2023-10-09T03:54:25;12.50;99.90
9971;DHT22;5026;51.494;11.974;2023-10-09T03:56:55;12.40;99.90
9971;DHT22;5026;51.494;11.974;2023-10-09T03:59:24;12.50;99.90
9971;DHT22;5026;51.494;11.974;2023-10-09T04:01:56;12.40;99.90
9971;DHT22;5026;51.494;11.974;2023-10-09T04:04:23;12.40;99.90
9971;DHT22;5026;51.494;11.974;2023-10-09T04:06:52;12.40;99.90
9971;DHT22;5026;51.494;11.974;2023-10-09T04:09:19;12.50;99.90
9971;DHT22;5026;51.494;11.974;2023-10-09T04:12:05;12.40;99.90
9971;DHT22;5026;51.494;11.974;2023-10-09T04:14:55;12.40;99.90
9971;DHT22;5026;51.494;11.974;2023-10-09T04:17:23;12.40;99.90
9971;DHT22;5026;51.494;11.974;2023-10-09T04:20:00;12.40;99.90
9971;DHT22;5026;51.494;11.974;2023-10-09T04:23:00;12.40;99.90
9971;DHT22;5026;51.494;11.974;2023-10-09T04:25:31;12.40;99.90
9971;DHT22;5026;51.494;11.974;2023-10-09T04:28:08;12.40;99.90
9971;DHT22;5026;51.494;11.974;2023-10-09T04:30:37;12.40;99.90
9971;DHT22;5026;51.494;11.974;2023-10-09T04:33:08;12.40;99.90
9971;DHT22;5026;51.494;11.974;2023-10-09T04:35:54;12.40;99.90
9971;DHT22;5026;51.494;11.974;2023-10-09T04:38:36;12.40;99.90
9971;DHT22;5026;51.494;11.974;2023-10-09T04:41:05;12.40;99.90
9971;DHT22;5026;51.494;11.974;2023-10-09T04:43:33;12.40;99.90
9971;DHT22;5026;51.494;11.974;2023-10-09T04:45:59;12.40;99.90
9971;DHT22;5026;51.494;11.974;2023-10-09T04:48:33;12.40;99.90
9971;DHT22;5026;51.494;11.974;2023-10-09T04:50:59;12.40;99.90
9971;DHT22;5026;51.494;11.974;2023-10-09T04:53:48;12.50;99.90
9971;DHT22;5026;51.494;11.974;2023-10-09T04:56:25;12.50;99.90
9971;DHT22;5026;51.494;11.974;2023-10-09T04:58:57;12.50;99.90
9971;DHT22;5026;51.494;11.974;2023-10-09T05:01:29;12.60;99.90
9971;DHT22;5026;51.494;11.974;2023-10-09T05:04:09;12.60;99.90
9971;DHT22;5026;51.494;11.974;2023-10-09T05:06:48;12.60;99.90
9971;DHT22;5026;51.494;11.974;2023-10-09T05:09:25;12.60;99.90
9971;DHT22;5026;51.494;11.974;2023-10-09T05:11:53;12.70;99.90
9971;DHT22;5026;51.494;11.974;2023-10-09T05:14:34;12.60;99.90
9971;DHT22;5026;51.494;11.974;2023-10-09T05:17:11;12.60;99.90
9971;DHT22;5026;51.494;11.974;2023-10-09T05:19:43;12.60;99.90
9971;DHT22;5026;51.494;11.974;2023-10-09T05:22:20;12.60;99.90
9971;DHT22;5026;51.494;11.974;2023-10-09T05:24:57;12.70;99.90
9971;DHT22;5026;51.494;11.974;2023-10-09T05:27:24;12.70;99.90
9971;DHT22;5026;51.494;11.974;2023-10-09T05:30:06;12.70;99.90
9971;DHT22;5026;51.494;11.974;2023-10-09T05:32:51;12.70;99.90
9971;DHT22;5026;51.494;11.974;2023-10-09T05:35:21;12.70;99.90
9971;DHT22;5026;51.494;11.974;2023-10-09T05:37:55;12.70;99.90
9971;DHT22;5026;51.494;11.974;2023-10-09T05:40:29;12.70;99.90
9971;DHT22;5026;51.494;11.974;2023-10-09T05:42:57;12.80;99.90
9971;DHT22;5026;51.494;11.974;2023-10-09T05:45:25;12.80;99.90
9971;DHT22;5026;51.494;11.974;2023-10-09T05:48:10;12.80;99.90
9971;DHT22;5026;51.494;11.974;2023-10-09T05:50:50;12.80;99.90
9971;DHT22;5026;51.494;11.974;2023-10-09T05:53:37;12.80;99.90
9971;DHT22;5026;51.494;11.974;2023-10-09T05:56:20;12.80;99.90
9971;DHT22;5026;51.494;11.974;2023-10-09T05:59:12;12.80;99.90
9971;DHT22;5026;51.494;11.974;2023-10-09T06:01:53;12.90;99.90
9971;DHT22;5026;51.494;11.974;2023-10-09T06:04:37;12.90;99.90
9971;DHT22;5026;51.494;11.974;2023-10-09T06:07:20;12.90;99.90
9971;DHT22;5026;51.494;11.974;2023-10-09T06:09:49;12.90;99.90
9971;DHT22;5026;51.494;11.974;2023-10-09T06:12:17;12.90;99.90
9971;DHT22;5026;51.494;11.974;2023-10-09T06:15:15;12.90;99.90
9971;DHT22;5026;51.494;11.974;2023-10-09T06:17:57;13.00;99.90
9971;DHT22;5026;51.494;11.974;2023-10-09T06:20:43;13.00;99.90
9971;DHT22;5026;51.494;11.974;2023-10-09T06:23:24;13.00;99.90
9971;DHT22;5026;51.494;11.974;2023-10-09T06:26:11;13.10;99.90
9971;DHT22;5026;51.494;11.974;2023-10-09T06:28:51;13.10;99.90
9971;DHT22;5026;51.494;11.974;2023-10-09T06:31:39;13.10;99.90
9971;DHT22;5026;51.494;11.974;2023-10-09T06:34:31;13.00;99.90
9971;DHT22;5026;51.494;11.974;2023-10-09T06:37:00;13.10;99.90
9971;DHT22;5026;51.494;11.974;2023-10-09T06:39:34;13.10;99.90
9971;DHT22;5026;51.494;11.974;2023-10-09T06:42:16;13.10;99.90
9971;DHT22;5026;51.494;11.974;2023-10-09T06:45:11;13.10;99.90
9971;DHT22;5026;51.494;11.974;2023-10-09T06:47:43;13.10;99.90
9971;DHT22;5026;51.494;11.974;2023-10-09T06:50:19;13.10;99.90
9971;DHT22;5026;51.494;11.974;2023-10-09T06:53:08;13.10;99.90
9971;DHT22;5026;51.494;11.974;2023-10-09T06:55:51;13.10;99.90
9971;DHT22;5026;51.494;11.974;2023-10-09T06:58:26;13.20;99.90
9971;DHT22;5026;51.494;11.974;2023-10-09T07:00:55;13.30;99.90
9971;DHT22;5026;51.494;11.974;2023-10-09T07:03:45;13.20;99.90
9971;DHT22;5026;51.494;11.974;2023-10-09T07:06:28;13.20;99.90
9971;DHT22;5026;51.494;11.974;2023-10-09T07:09:09;13.30;99.90
9971;DHT22;5026;51.494;11.974;2023-10-09T07:11:45;13.30;99.90
9971;DHT22;5026;51.494;11.974;2023-10-09T07:14:25;13.30;99.90
9971;DHT22;5026;51.494;11.974;2023-10-09T07:17:11;13.30;99.90
9971;DHT22;5026;51.494;11.974;2023-10-09T07:19:49;13.30;99.90
9971;DHT22;5026;51.494;11.974;2023-10-09T07:22:34;13.30;99.90
9971;DHT22;5026;51.494;11.974;2023-10-09T07:25:06;13.30;99.90
9971;DHT22;5026;51.494;11.974;2023-10-09T07:27:53;13.30;99.90
9971;DHT22;5026;51.494;11.974;2023-10-09T07:30:21;13.40;99.90
9971;DHT22;5026;51.494;11.974;2023-10-09T07:33:06;13.50;99.90
9971;DHT22;5026;51.494;11.974;2023-10-09T07:35:44;13.60;99.90
9971;DHT22;5026;51.494;11.974;2023-10-09T07:38:16;13.70;99.90
9971;DHT22;5026;51.494;11.974;2023-10-09T07:40:45;13.70;99.90
9971;DHT22;5026;51.494;11.974;2023-10-09T07:43:26;13.70;99.90
9971;DHT22;5026;51.494;11.974;2023-10-09T07:45:54;13.80;99.90
9971;DHT22;5026;51.494;11.974;2023-10-09T07:48:37;13.60;99.90
9971;DHT22;5026;51.494;11.974;2023-10-09T07:51:14;13.70;99.90
9971;DHT22;5026;51.494;11.974;2023-10-09T07:53:42;13.70;99.90
9971;DHT22;5026;51.494;11.974;2023-10-09T07:56:15;13.70;99.90
9971;DHT22;5026;51.494;11.974;2023-10-09T07:58:46;13.80;99.90
9971;DHT22;5026;51.494;11.974;2023-10-09T08:01:14;13.80;99.90
9971;DHT22;5026;51.494;11.974;2023-10-09T08:03:50;13.90;99.90
9971;DHT22;5026;51.494;11.974;2023-10-09T08:06:27;13.90;99.90
9971;DHT22;5026;51.494;11.974;2023-10-09T08:09:08;14.00;99.90
9971;DHT22;5026;51.494;11.974;2023-10-09T08:11:48;14.10;99.90
9971;DHT22;5026;51.494;11.974;2023-10-09T08:14:40;14.10;99.90
9971;DHT22;5026;51.494;11.974;2023-10-09T08:17:11;14.10;99.90
9971;DHT22;5026;51.494;11.974;2023-10-09T08:19:42;14.10;99.90
9971;DHT22;5026;51.494;11.974;2023-10-09T08:22:27;14.10;99.90
9971;DHT22;5026;51.494;11.974;2023-10-09T08:25:10;14.00;99.90
9971;DHT22;5026;51.494;11.974;2023-10-09T08:27:52;14.10;99.90
9971;DHT22;5026;51.494;11.974;2023-10-09T08:30:23;14.10;99.90
9971;DHT22;5026;51.494;11.974;2023-10-09T08:33:06;14.00;99.90
9971;DHT22;5026;51.494;11.974;2023-10-09T08:36:01;14.00;99.90
9971;DHT22;5026;51.494;11.974;2023-10-09T08:38:31;14.10;99.90
9971;DHT22;5026;51.494;11.974;2023-10-09T08:41:08;14.20;99.90
9971;DHT22;5026;51.494;11.974;2023-10-09T08:43:49;14.30;99.90
9971;DHT22;5026;51.494;11.974;2023-10-09T08:46:20;14.40;99.90
9971;DHT22;5026;51.494;11.974;2023-10-09T08:48:48;14.30;99.90
9971;DHT22;5026;51.494;11.974;2023-10-09T08:51:17;14.40;99.90
9971;DHT22;5026;51.494;11.974;2023-10-09T08:53:46;14.40;99.90
9971;DHT22;5026;51.494;11.974;2023-10-09T08:56:13;14.40;99.90
9971;DHT22;5026;51.494;11.974;2023-10-09T08:58:48;14.40;99.90
9971;DHT22;5026;51.494;11.974;2023-10-09T09:01:16;14.50;99.90
9971;DHT22;5026;51.494;11.974;2023-10-09T09:03:45;14.50;99.90
9971;DHT22;5026;51.494;11.974;2023-10-09T09:06:12;14.50;99.90
9971;DHT22;5026;51.494;11.974;2023-10-09T09:08:42;14.40;99.90
9971;DHT22;5026;51.494;11.974;2023-10-09T09:11:11;14.50;99.90
9971;DHT22;5026;51.494;11.974;2023-10-09T09:13:40;14.40;99.90
9971;DHT22;5026;51.494;11.974;2023-10-09T09:16:14;14.40;99.90
9971;DHT22;5026;51.494;11.974;2023-10-09T09:18:52;14.50;99.90
9971;DHT22;5026;51.494;11.974;2023-10-09T09:21:25;14.60;99.90
9971;DHT22;5026;51.494;11.974;2023-10-09T09:23:56;14.70;99.90
9971;DHT22;5026;51.494;11.974;2023-10-09T09:26:34;14.70;99.90
9971;DHT22;5026;51.494;11.974;2023-10-09T09:29:04;14.70;99.90
9971;DHT22;5026;51.494;11.974;2023-10-09T09:31:33;14.80;99.90
9971;DHT22;5026;51.494;11.974;2023-10-09T09:34:04;14.90;99.90
9971;DHT22;5026;51.494;11.974;2023-10-09T09:36:49;15.10;99.90
9971;DHT22;5026;51.494;11.974;2023-10-09T09:39:23;15.40;99.90
9971;DHT22;5026;51.494;11.974;2023-10-09T09:41:57;15.60;99.90
9971;DHT22;5026;51.494;11.974;2023-10-09T09:44:32;15.80;99.90
9971;DHT22;5026;51.494;11.974;2023-10-09T09:47:00;16.10;99.90
9971;DHT22;5026;51.494;11.974;2023-10-09T09:49:33;16.30;99.90
9971;DHT22;5026;51.494;11.974;2023-10-09T09:52:04;16.50;99.90
9971;DHT22;5026;51.494;11.974;2023-10-09T09:54:37;16.70;99.90
9971;DHT22;5026;51.494;11.974;2023-10-09T09:57:06;16.80;99.90
9971;DHT22;5026;51.494;11.974;2023-10-09T09:59:38;16.90;99.90
9971;DHT22;5026;51.494;11.974;2023-10-09T10:02:22;17.00;99.90
9971;DHT22;5026;51.494;11.974;2023-10-09T10:04:54;16.90;99.90
9971;DHT22;5026;51.494;11.974;2023-10-09T10:07:23;17.00;99.90
9971;DHT22;5026;51.494;11.974;2023-10-09T10:09:52;17.00;99.90
9971;DHT22;5026;51.494;11.974;2023-10-09T10:12:50;16.90;99.90
9971;DHT22;5026;51.494;11.974;2023-10-09T10:18:22;16.60;99.90
9971;DHT22;5026;51.494;11.974;2023-10-09T10:21:11;16.50;99.90
9971;DHT22;5026;51.494;11.974;2023-10-09T10:23:43;16.40;99.90
9971;DHT22;5026;51.494;11.974;2023-10-09T10:26:21;16.30;99.90
9971;DHT22;5026;51.494;11.974;2023-10-09T10:29:14;16.20;99.90
9971;DHT22;5026;51.494;11.974;2023-10-09T10:31:54;16.20;99.90
9971;DHT22;5026;51.494;11.974;2023-10-09T10:34:23;16.00;99.90
9971;DHT22;5026;51.494;11.974;2023-10-09T10:36:50;16.00;99.90
9971;DHT22;5026;51.494;11.974;2023-10-09T10:39:24;16.00;99.90
9971;DHT22;5026;51.494;11.974;2023-10-09T10:42:09;16.00;99.90
9971;DHT22;5026;51.494;11.974;2023-10-09T10:44:57;16.00;99.90
9971;DHT22;5026;51.494;11.974;2023-10-09T10:47:27;16.00;99.90
9971;DHT22;5026;51.494;11.974;2023-10-09T10:50:01;15.90;99.90
9971;DHT22;5026;51.494;11.974;2023-10-09T10:52:45;15.90;99.90
9971;DHT22;5026;51.494;11.974;2023-10-09T10:55:22;15.90;99.90
9971;DHT22;5026;51.494;11.974;2023-10-09T10:58:17;15.90;99.90
9971;DHT22;5026;51.494;11.974;2023-10-09T11:00:54;15.80;99.90
9971;DHT22;5026;51.494;11.974;2023-10-09T11:03:39;15.80;99.90
9971;DHT22;5026;51.494;11.974;2023-10-09T11:06:24;15.80;99.90
9971;DHT22;5026;51.494;11.974;2023-10-09T11:09:01;15.70;99.90
9971;DHT22;5026;51.494;11.974;2023-10-09T11:11:35;15.80;99.90
9971;DHT22;5026;51.494;11.974;2023-10-09T11:14:11;15.80;99.90
9971;DHT22;5026;51.494;11.974;2023-10-09T11:16:40;15.80;99.90
9971;DHT22;5026;51.494;11.974;2023-10-09T11:19:14;15.80;99.90
9971;DHT22;5026;51.494;11.974;2023-10-09T11:21:59;15.90;99.90
9971;DHT22;5026;51.494;11.974;2023-10-09T11:24:41;15.90;99.90
9971;DHT22;5026;51.494;11.974;2023-10-09T11:27:09;15.90;99.90
9971;DHT22;5026;51.494;11.974;2023-10-09T11:29:49;16.00;99.90
9971;DHT22;5026;51.494;11.974;2023-10-09T11:32:21;16.00;99.90
9971;DHT22;5026;51.494;11.974;2023-10-09T11:34:50;16.00;99.90
9971;DHT22;5026;51.494;11.974;2023-10-09T11:37:22;15.90;99.90
9971;DHT22;5026;51.494;11.974;2023-10-09T11:40:05;15.90;99.90
9971;DHT22;5026;51.494;11.974;2023-10-09T11:42:49;15.90;99.90
9971;DHT22;5026;51.494;11.974;2023-10-09T11:45:23;15.90;99.90
9971;DHT22;5026;51.494;11.974;2023-10-09T11:47:54;15.90;99.90
9971;DHT22;5026;51.494;11.974;2023-10-09T11:50:38;15.90;99.90
9971;DHT22;5026;51.494;11.974;2023-10-09T11:53:08;15.90;99.90
9971;DHT22;5026;51.494;11.974;2023-10-09T11:55:36;15.80;99.90
9971;DHT22;5026;51.494;11.974;2023-10-09T11:58:03;15.80;99.90
9971;DHT22;5026;51.494;11.974;2023-10-09T12:00:33;15.80;99.90
9971;DHT22;5026;51.494;11.974;2023-10-09T12:03:11;15.80;99.90
9971;DHT22;5026;51.494;11.974;2023-10-09T12:05:40;15.90;99.90
9971;DHT22;5026;51.494;11.974;2023-10-09T12:08:11;15.90;99.90
9971;DHT22;5026;51.494;11.974;2023-10-09T12:10:41;16.00;99.90
9971;DHT22;5026;51.494;11.974;2023-10-09T12:13:08;16.00;99.90
9971;DHT22;5026;51.494;11.974;2023-10-09T12:15:36;16.00;99.90
9971;DHT22;5026;51.494;11.974;2023-10-09T12:18:06;16.00;99.90
9971;DHT22;5026;51.494;11.974;2023-10-09T12:20:40;16.00;99.90
9971;DHT22;5026;51.494;11.974;2023-10-09T12:23:07;16.00;99.90
9971;DHT22;5026;51.494;11.974;2023-10-09T12:25:39;16.00;99.90
9971;DHT22;5026;51.494;11.974;2023-10-09T12:28:05;16.00;99.90
9971;DHT22;5026;51.494;11.974;2023-10-09T12:30:39;16.00;99.90
9971;DHT22;5026;51.494;11.974;2023-10-09T12:33:06;16.00;99.90
9971;DHT22;5026;51.494;11.974;2023-10-09T12:35:36;16.10;99.90
9971;DHT22;5026;51.494;11.974;2023-10-09T12:38:04;16.00;99.90
9971;DHT22;5026;51.494;11.974;2023-10-09T12:40:34;16.00;99.90
9971;DHT22;5026;51.494;11.974;2023-10-09T12:43:02;16.00;99.90
9971;DHT22;5026;51.494;11.974;2023-10-09T12:45:28;16.00;99.90
9971;DHT22;5026;51.494;11.974;2023-10-09T12:47:59;15.90;99.90
9971;DHT22;5026;51.494;11.974;2023-10-09T12:50:28;15.90;99.90
9971;DHT22;5026;51.494;11.974;2023-10-09T12:52:59;15.90;99.90
9971;DHT22;5026;51.494;11.974;2023-10-09T12:55:35;15.90;99.90
9971;DHT22;5026;51.494;11.974;2023-10-09T12:58:03;16.00;99.90
9971;DHT22;5026;51.494;11.974;2023-10-09T13:00:33;16.00;99.90
9971;DHT22;5026;51.494;11.974;2023-10-09T13:03:05;16.00;99.90
9971;DHT22;5026;51.494;11.974;2023-10-09T13:05:43;16.00;99.90
9971;DHT22;5026;51.494;11.974;2023-10-09T13:08:19;16.00;99.90
9971;DHT22;5026;51.494;11.974;2023-10-09T13:10:48;15.90;99.90
9971;DHT22;5026;51.494;11.974;2023-10-09T13:13:25;16.00;99.90
9971;DHT22;5026;51.494;11.974;2023-10-09T13:16:02;16.00;99.90
9971;DHT22;5026;51.494;11.974;2023-10-09T13:18:33;16.00;99.90
9971;DHT22;5026;51.494;11.974;2023-10-09T13:21:00;16.00;99.90
9971;DHT22;5026;51.494;11.974;2023-10-09T13:23:29;16.00;99.90
9971;DHT22;5026;51.494;11.974;2023-10-09T13:26:05;16.00;99.90
9971;DHT22;5026;51.494;11.974;2023-10-09T13:28:44;16.00;99.90
9971;DHT22;5026;51.494;11.974;2023-10-09T13:31:11;16.00;99.90
9971;DHT22;5026;51.494;11.974;2023-10-09T13:33:41;16.00;99.90
9971;DHT22;5026;51.494;11.974;2023-10-09T13:36:09;15.90;99.90
9971;DHT22;5026;51.494;11.974;2023-10-09T13:38:43;15.90;99.90
9971;DHT22;5026;51.494;11.974;2023-10-09T13:41:10;15.90;99.90
9971;DHT22;5026;51.494;11.974;2023-10-09T13:43:39;15.90;99.90
9971;DHT22;5026;51.494;11.974;2023-10-09T13:46:08;15.90;99.90
9971;DHT22;5026;51.494;11.974;2023-10-09T13:48:37;15.90;99.90
9971;DHT22;5026;51.494;11.974;2023-10-09T13:51:08;15.90;99.90
9971;DHT22;5026;51.494;11.974;2023-10-09T13:53:40;15.90;99.90
9971;DHT22;5026;51.494;11.974;2023-10-09T13:56:11;15.90;99.90
9971;DHT22;5026;51.494;11.974;2023-10-09T13:58:40;15.90;99.90
9971;DHT22;5026;51.494;11.974;2023-10-09T14:01:08;15.90;99.90
9971;DHT22;5026;51.494;11.974;2023-10-09T14:03:35;15.90;99.90
9971;DHT22;5026;51.494;11.974;2023-10-09T14:06:04;15.90;99.90
9971;DHT22;5026;51.494;11.974;2023-10-09T14:08:39;15.90;99.90
9971;DHT22;5026;51.494;11.974;2023-10-09T14:11:08;15.80;99.90
9971;DHT22;5026;51.494;11.974;2023-10-09T14:13:39;15.80;99.90
9971;DHT22;5026;51.494;11.974;2023-10-09T14:16:06;15.80;99.90
9971;DHT22;5026;51.494;11.974;2023-10-09T14:18:46;15.80;99.90
9971;DHT22;5026;51.494;11.974;2023-10-09T14:21:13;15.90;99.90
9971;DHT22;5026;51.494;11.974;2023-10-09T14:23:43;15.80;99.90
9971;DHT22;5026;51.494;11.974;2023-10-09T14:26:12;15.80;99.90
9971;DHT22;5026;51.494;11.974;2023-10-09T14:28:39;15.80;99.90
9971;DHT22;5026;51.494;11.974;2023-10-09T14:31:08;15.80;99.90
9971;DHT22;5026;51.494;11.974;2023-10-09T14:33:38;15.80;99.90
9971;DHT22;5026;51.494;11.974;2023-10-09T14:36:06;15.80;99.90
9971;DHT22;5026;51.494;11.974;2023-10-09T14:38:33;15.70;99.90
9971;DHT22;5026;51.494;11.974;2023-10-09T14:41:06;15.70;99.90
9971;DHT22;5026;51.494;11.974;2023-10-09T14:43:37;15.60;99.90
9971;DHT22;5026;51.494;11.974;2023-10-09T14:46:04;15.60;99.90
9971;DHT22;5026;51.494;11.974;2023-10-09T14:48:36;15.60;99.90
9971;DHT22;5026;51.494;11.974;2023-10-09T14:51:04;15.60;99.90
9971;DHT22;5026;51.494;11.974;2023-10-09T14:53:32;15.60;99.90
9971;DHT22;5026;51.494;11.974;2023-10-09T14:56:00;15.70;99.90
9971;DHT22;5026;51.494;11.974;2023-10-09T14:58:30;15.70;99.90
9971;DHT22;5026;51.494;11.974;2023-10-09T15:01:07;15.70;99.90
9971;DHT22;5026;51.494;11.974;2023-10-09T15:03:36;15.70;99.90
9971;DHT22;5026;51.494;11.974;2023-10-09T15:06:04;15.70;99.90
9971;DHT22;5026;51.494;11.974;2023-10-09T15:08:34;15.70;99.90
9971;DHT22;5026;51.494;11.974;2023-10-09T15:11:01;15.70;99.90
9971;DHT22;5026;51.494;11.974;2023-10-09T15:13:29;15.70;99.90
9971;DHT22;5026;51.494;11.974;2023-10-09T15:15:56;15.70;99.90
9971;DHT22;5026;51.494;11.974;2023-10-09T15:18:24;15.70;99.90
9971;DHT22;5026;51.494;11.974;2023-10-09T15:20:51;15.70;99.90
9971;DHT22;5026;51.494;11.974;2023-10-09T15:23:18;15.70;99.90
9971;DHT22;5026;51.494;11.974;2023-10-09T15:25:46;15.70;99.90
9971;DHT22;5026;51.494;11.974;2023-10-09T15:28:15;15.70;99.90
9971;DHT22;5026;51.494;11.974;2023-10-09T15:30:44;15.70;99.90
9971;DHT22;5026;51.494;11.974;2023-10-09T15:33:14;15.70;99.90
9971;DHT22;5026;51.494;11.974;2023-10-09T15:35:42;15.70;99.90
9971;DHT22;5026;51.494;11.974;2023-10-09T15:38:11;15.60;99.90
9971;DHT22;5026;51.494;11.974;2023-10-09T15:40:39;15.60;99.90
9971;DHT22;5026;51.494;11.974;2023-10-09T15:43:09;15.70;99.90
9971;DHT22;5026;51.494;11.974;2023-10-09T15:45:42;14.80;99.90
9971;DHT22;5026;51.494;11.974;2023-10-09T15:48:11;15.60;99.90
9971;DHT22;5026;51.494;11.974;2023-10-09T15:50:38;15.60;99.90
9971;DHT22;5026;51.494;11.974;2023-10-09T15:53:14;15.60;99.90
9971;DHT22;5026;51.494;11.974;2023-10-09T15:55:43;15.50;99.90
9971;DHT22;5026;51.494;11.974;2023-10-09T15:58:10;15.50;99.90
9971;DHT22;5026;51.494;11.974;2023-10-09T16:00:37;15.50;99.90
9971;DHT22;5026;51.494;11.974;2023-10-09T16:03:05;15.50;99.90
9971;DHT22;5026;51.494;11.974;2023-10-09T16:05:36;15.50;99.90
9971;DHT22;5026;51.494;11.974;2023-10-09T16:08:06;15.50;99.90
9971;DHT22;5026;51.494;11.974;2023-10-09T16:10:34;15.60;99.90
9971;DHT22;5026;51.494;11.974;2023-10-09T16:13:01;15.50;99.90
9971;DHT22;5026;51.494;11.974;2023-10-09T16:15:29;15.50;99.90
9971;DHT22;5026;51.494;11.974;2023-10-09T16:17:58;15.50;99.90
9971;DHT22;5026;51.494;11.974;2023-10-09T16:20:32;15.60;99.90
9971;DHT22;5026;51.494;11.974;2023-10-09T16:23:00;15.50;99.90
9971;DHT22;5026;51.494;11.974;2023-10-09T16:25:30;15.60;99.90
9971;DHT22;5026;51.494;11.974;2023-10-09T16:28:00;15.50;99.90